sensor_id;sensor_type;location;lat;lon;timestamp;temperature;humidity
15156;DHT22;7678;50.058;8.306;2023-07-20T00:01:21;18.80;75.10
15156;DHT22;7678;50.058;8.306;2023-07-20T00:03:50;18.80;75.50
15156;DHT22;7678;50.058;8.306;2023-07-20T00:06:25;18.70;75.50
15156;DHT22;7678;50.058;8.306;2023-07-20T00:08:55;18.70;75.90
15156;DHT22;7678;50.058;8.306;2023-07-20T00:11:26;18.70;76.10
15156;DHT22;7678;50.058;8.306;2023-07-20T00:13:57;18.60;77.10
15156;DHT22;7678;50.058;8.306;2023-07-20T00:16:25;18.50;77.80
15156;DHT22;7678;50.058;8.306;2023-07-20T00:18:54;18.50;77.80
15156;DHT22;7678;50.058;8.306;2023-07-20T00:21:29;18.50;78.40
15156;DHT22;7678;50.058;8.306;2023-07-20T00:23:59;18.30;79.30
15156;DHT22;7678;50.058;8.306;2023-07-20T00:26:27;18.20;80.10
15156;DHT22;7678;50.058;8.306;2023-07-20T00:28:56;18.20;82.10
15156;DHT22;7678;50.058;8.306;2023-07-20T00:31:25;18.20;82.70
15156;DHT22;7678;50.058;8.306;2023-07-20T00:33:53;18.20;82.90
15156;DHT22;7678;50.058;8.306;2023-07-20T00:36:21;18.30;81.60
15156;DHT22;7678;50.058;8.306;2023-07-20T00:38:53;18.30;83.70
15156;DHT22;7678;50.058;8.306;2023-07-20T00:41:22;18.30;82.10
15156;DHT22;7678;50.058;8.306;2023-07-20T00:43:56;18.40;83.10
15156;DHT22;7678;50.058;8.306;2023-07-20T00:46:28;18.30;83.10
15156;DHT22;7678;50.058;8.306;2023-07-20T00:48:59;18.30;83.50
15156;DHT22;7678;50.058;8.306;2023-07-20T00:51:27;18.30;84.30
15156;DHT22;7678;50.058;8.306;2023-07-20T00:53:58;18.30;83.80
15156;DHT22;7678;50.058;8.306;2023-07-20T00:56:27;18.20;84.90
15156;DHT22;7678;50.058;8.306;2023-07-20T00:58:55;18.20;84.80
15156;DHT22;7678;50.058;8.306;2023-07-20T01:01:23;18.20;85.80
15156;DHT22;7678;50.058;8.306;2023-07-20T01:03:52;18.20;84.80
15156;DHT22;7678;50.058;8.306;2023-07-20T01:06:26;18.20;86.60
15156;DHT22;7678;50.058;8.306;2023-07-20T01:09:04;18.10;85.10
15156;DHT22;7678;50.058;8.306;2023-07-20T01:11:38;18.10;85.60
15156;DHT22;7678;50.058;8.306;2023-07-20T01:14:12;18.10;87.00
15156;DHT22;7678;50.058;8.306;2023-07-20T01:16:42;18.10;86.90
15156;DHT22;7678;50.058;8.306;2023-07-20T01:19:15;18.10;86.90
15156;DHT22;7678;50.058;8.306;2023-07-20T01:22:10;18.00;87.10
15156;DHT22;7678;50.058;8.306;2023-07-20T01:25:17;18.00;87.50
15156;DHT22;7678;50.058;8.306;2023-07-20T01:28:13;18.00;88.20
15156;DHT22;7678;50.058;8.306;2023-07-20T01:30:55;18.00;87.60
15156;DHT22;7678;50.058;8.306;2023-07-20T01:33:26;17.90;88.50
15156;DHT22;7678;50.058;8.306;2023-07-20T01:35:58;17.80;88.40
15156;DHT22;7678;50.058;8.306;2023-07-20T01:38:28;17.80;88.90
15156;DHT22;7678;50.058;8.306;2023-07-20T01:41:03;17.80;89.00
15156;DHT22;7678;50.058;8.306;2023-07-20T01:43:33;17.70;89.50
15156;DHT22;7678;50.058;8.306;2023-07-20T01:46:01;17.70;89.40
15156;DHT22;7678;50.058;8.306;2023-07-20T01:48:32;17.70;89.60
15156;DHT22;7678;50.058;8.306;2023-07-20T01:51:00;17.60;89.80
15156;DHT22;7678;50.058;8.306;2023-07-20T01:53:28;17.50;90.20
15156;DHT22;7678;50.058;8.306;2023-07-20T01:56:00;17.50;90.40
15156;DHT22;7678;50.058;8.306;2023-07-20T01:58:30;17.40;90.90
15156;DHT22;7678;50.058;8.306;2023-07-20T02:01:01;17.40;91.20
15156;DHT22;7678;50.058;8.306;2023-07-20T02:03:32;17.50;91.50
15156;DHT22;7678;50.058;8.306;2023-07-20T02:06:04;17.40;91.20
15156;DHT22;7678;50.058;8.306;2023-07-20T02:08:34;17.30;91.50
15156;DHT22;7678;50.058;8.306;2023-07-20T02:11:03;17.20;91.70
15156;DHT22;7678;50.058;8.306;2023-07-20T02:13:32;17.20;92.20
15156;DHT22;7678;50.058;8.306;2023-07-20T02:16:00;17.20;92.30
15156;DHT22;7678;50.058;8.306;2023-07-20T02:18:28;17.20;92.50
15156;DHT22;7678;50.058;8.306;2023-07-20T02:20:59;17.20;92.40
15156;DHT22;7678;50.058;8.306;2023-07-20T02:23:27;17.20;92.50
15156;DHT22;7678;50.058;8.306;2023-07-20T02:25:57;17.30;92.30
15156;DHT22;7678;50.058;8.306;2023-07-20T02:28:25;17.20;92.40
15156;DHT22;7678;50.058;8.306;2023-07-20T02:30:54;17.20;92.60
15156;DHT22;7678;50.058;8.306;2023-07-20T02:33:23;17.20;93.40
15156;DHT22;7678;50.058;8.306;2023-07-20T02:35:55;17.20;93.40
15156;DHT22;7678;50.058;8.306;2023-07-20T02:38:30;17.00;93.70
15156;DHT22;7678;50.058;8.306;2023-07-20T02:41:01;16.80;95.20
15156;DHT22;7678;50.058;8.306;2023-07-20T02:43:31;16.90;94.90
15156;DHT22;7678;50.058;8.306;2023-07-20T02:46:02;17.00;95.50
15156;DHT22;7678;50.058;8.306;2023-07-20T02:48:30;17.10;95.60
15156;DHT22;7678;50.058;8.306;2023-07-20T02:50:59;16.90;95.30
15156;DHT22;7678;50.058;8.306;2023-07-20T02:53:28;17.00;95.30
15156;DHT22;7678;50.058;8.306;2023-07-20T02:55:57;17.00;95.90
15156;DHT22;7678;50.058;8.306;2023-07-20T02:58:25;17.00;96.10
15156;DHT22;7678;50.058;8.306;2023-07-20T03:00:53;16.90;96.50
15156;DHT22;7678;50.058;8.306;2023-07-20T03:03:22;16.60;97.00
15156;DHT22;7678;50.058;8.306;2023-07-20T03:05:50;16.80;97.20
15156;DHT22;7678;50.058;8.306;2023-07-20T03:08:21;16.70;97.20
15156;DHT22;7678;50.058;8.306;2023-07-20T03:10:51;16.60;97.40
15156;DHT22;7678;50.058;8.306;2023-07-20T03:13:20;16.60;97.00
15156;DHT22;7678;50.058;8.306;2023-07-20T03:15:48;16.60;97.10
15156;DHT22;7678;50.058;8.306;2023-07-20T03:18:16;16.60;97.30
15156;DHT22;7678;50.058;8.306;2023-07-20T03:20:44;16.60;97.30
15156;DHT22;7678;50.058;8.306;2023-07-20T03:23:13;16.50;97.70
15156;DHT22;7678;50.058;8.306;2023-07-20T03:25:42;16.60;97.50
15156;DHT22;7678;50.058;8.306;2023-07-20T03:28:11;16.50;97.40
15156;DHT22;7678;50.058;8.306;2023-07-20T03:30:39;16.60;97.40
15156;DHT22;7678;50.058;8.306;2023-07-20T03:33:09;16.50;97.70
15156;DHT22;7678;50.058;8.306;2023-07-20T03:35:42;16.50;98.00
15156;DHT22;7678;50.058;8.306;2023-07-20T03:38:10;16.20;98.60
15156;DHT22;7678;50.058;8.306;2023-07-20T03:40:48;16.00;99.60
15156;DHT22;7678;50.058;8.306;2023-07-20T03:43:29;16.00;99.90
15156;DHT22;7678;50.058;8.306;2023-07-20T03:45:58;16.10;99.90
15156;DHT22;7678;50.058;8.306;2023-07-20T03:48:26;16.10;99.90
15156;DHT22;7678;50.058;8.306;2023-07-20T03:50:55;16.10;99.90
15156;DHT22;7678;50.058;8.306;2023-07-20T03:53:24;16.20;99.90
15156;DHT22;7678;50.058;8.306;2023-07-20T03:55:53;16.30;99.90
15156;DHT22;7678;50.058;8.306;2023-07-20T03:58:23;16.30;99.90
15156;DHT22;7678;50.058;8.306;2023-07-20T04:00:53;16.40;99.90
15156;DHT22;7678;50.058;8.306;2023-07-20T04:03:21;16.50;99.90
15156;DHT22;7678;50.058;8.306;2023-07-20T04:05:51;16.60;99.90
15156;DHT22;7678;50.058;8.306;2023-07-20T04:08:33;16.70;99.10
15156;DHT22;7678;50.058;8.306;2023-07-20T04:11:02;16.70;99.50
15156;DHT22;7678;50.058;8.306;2023-07-20T04:13:35;16.70;99.50
15156;DHT22;7678;50.058;8.306;2023-07-20T04:16:04;16.70;98.80
15156;DHT22;7678;50.058;8.306;2023-07-20T04:18:35;16.70;99.40
15156;DHT22;7678;50.058;8.306;2023-07-20T04:21:03;16.80;98.70
15156;DHT22;7678;50.058;8.306;2023-07-20T04:23:31;16.70;99.10
15156;DHT22;7678;50.058;8.306;2023-07-20T04:26:02;16.60;98.90
15156;DHT22;7678;50.058;8.306;2023-07-20T04:28:32;16.60;99.40
15156;DHT22;7678;50.058;8.306;2023-07-20T04:31:11;16.60;99.20
15156;DHT22;7678;50.058;8.306;2023-07-20T04:33:42;16.60;99.40
15156;DHT22;7678;50.058;8.306;2023-07-20T04:36:10;16.70;99.70
15156;DHT22;7678;50.058;8.306;2023-07-20T04:38:40;16.70;99.70
15156;DHT22;7678;50.058;8.306;2023-07-20T04:41:10;16.80;99.50
15156;DHT22;7678;50.058;8.306;2023-07-20T04:43:42;16.70;99.90
15156;DHT22;7678;50.058;8.306;2023-07-20T04:46:11;16.80;99.90
15156;DHT22;7678;50.058;8.306;2023-07-20T04:48:40;16.80;99.90
15156;DHT22;7678;50.058;8.306;2023-07-20T04:51:11;16.90;99.90
15156;DHT22;7678;50.058;8.306;2023-07-20T04:53:44;16.80;99.90
15156;DHT22;7678;50.058;8.306;2023-07-20T04:56:14;17.00;99.90
15156;DHT22;7678;50.058;8.306;2023-07-20T04:58:44;17.00;99.90
15156;DHT22;7678;50.058;8.306;2023-07-20T05:01:15;17.00;99.90
15156;DHT22;7678;50.058;8.306;2023-07-20T05:03:47;17.00;99.30
15156;DHT22;7678;50.058;8.306;2023-07-20T05:06:20;17.00;99.80
15156;DHT22;7678;50.058;8.306;2023-07-20T05:09:01;17.00;99.30
15156;DHT22;7678;50.058;8.306;2023-07-20T05:11:29;17.10;99.60
15156;DHT22;7678;50.058;8.306;2023-07-20T05:13:59;17.20;98.40
15156;DHT22;7678;50.058;8.306;2023-07-20T05:16:28;17.10;99.00
15156;DHT22;7678;50.058;8.306;2023-07-20T05:19:03;17.10;99.00
15156;DHT22;7678;50.058;8.306;2023-07-20T05:21:36;16.90;98.90
15156;DHT22;7678;50.058;8.306;2023-07-20T05:24:05;17.00;98.80
15156;DHT22;7678;50.058;8.306;2023-07-20T05:26:38;17.10;98.70
15156;DHT22;7678;50.058;8.306;2023-07-20T05:29:08;17.30;99.10
15156;DHT22;7678;50.058;8.306;2023-07-20T05:31:40;17.30;98.70
15156;DHT22;7678;50.058;8.306;2023-07-20T05:34:09;17.30;99.20
15156;DHT22;7678;50.058;8.306;2023-07-20T05:36:46;17.30;98.80
15156;DHT22;7678;50.058;8.306;2023-07-20T05:39:17;17.30;99.00
15156;DHT22;7678;50.058;8.306;2023-07-20T05:41:46;17.40;98.60
15156;DHT22;7678;50.058;8.306;2023-07-20T05:44:17;17.10;99.30
15156;DHT22;7678;50.058;8.306;2023-07-20T05:46:48;17.10;99.30
15156;DHT22;7678;50.058;8.306;2023-07-20T05:49:24;17.10;99.60
15156;DHT22;7678;50.058;8.306;2023-07-20T05:51:53;17.30;99.40
15156;DHT22;7678;50.058;8.306;2023-07-20T05:54:21;17.30;99.20
15156;DHT22;7678;50.058;8.306;2023-07-20T05:56:50;17.50;98.80
15156;DHT22;7678;50.058;8.306;2023-07-20T05:59:20;17.40;98.50
15156;DHT22;7678;50.058;8.306;2023-07-20T06:01:50;17.50;97.80
15156;DHT22;7678;50.058;8.306;2023-07-20T06:04:19;17.60;98.20
15156;DHT22;7678;50.058;8.306;2023-07-20T06:06:49;17.90;97.60
15156;DHT22;7678;50.058;8.306;2023-07-20T06:09:17;17.90;97.40
15156;DHT22;7678;50.058;8.306;2023-07-20T06:11:46;18.00;96.70
15156;DHT22;7678;50.058;8.306;2023-07-20T06:14:14;18.00;96.60
15156;DHT22;7678;50.058;8.306;2023-07-20T06:16:50;18.20;96.00
15156;DHT22;7678;50.058;8.306;2023-07-20T06:19:18;18.50;96.00
15156;DHT22;7678;50.058;8.306;2023-07-20T06:21:49;18.80;94.90
15156;DHT22;7678;50.058;8.306;2023-07-20T06:24:20;18.50;94.60
15156;DHT22;7678;50.058;8.306;2023-07-20T06:26:49;18.30;95.20
15156;DHT22;7678;50.058;8.306;2023-07-20T06:29:19;18.30;95.40
15156;DHT22;7678;50.058;8.306;2023-07-20T06:31:48;18.10;95.50
15156;DHT22;7678;50.058;8.306;2023-07-20T06:34:17;18.20;96.10
15156;DHT22;7678;50.058;8.306;2023-07-20T06:36:49;18.50;95.10
15156;DHT22;7678;50.058;8.306;2023-07-20T06:39:18;18.50;94.80
15156;DHT22;7678;50.058;8.306;2023-07-20T06:41:49;18.50;94.80
15156;DHT22;7678;50.058;8.306;2023-07-20T06:44:21;18.80;94.10
15156;DHT22;7678;50.058;8.306;2023-07-20T06:46:51;18.80;93.80
15156;DHT22;7678;50.058;8.306;2023-07-20T06:49:27;19.20;93.30
15156;DHT22;7678;50.058;8.306;2023-07-20T06:51:57;19.60;92.80
15156;DHT22;7678;50.058;8.306;2023-07-20T06:54:25;19.90;92.20
15156;DHT22;7678;50.058;8.306;2023-07-20T06:56:55;20.30;91.60
15156;DHT22;7678;50.058;8.306;2023-07-20T06:59:26;20.30;91.10
15156;DHT22;7678;50.058;8.306;2023-07-20T07:02:15;19.70;91.50
15156;DHT22;7678;50.058;8.306;2023-07-20T07:04:44;19.70;91.30
15156;DHT22;7678;50.058;8.306;2023-07-20T07:07:16;19.70;90.90
15156;DHT22;7678;50.058;8.306;2023-07-20T07:09:49;19.60;91.50
15156;DHT22;7678;50.058;8.306;2023-07-20T07:12:20;19.70;91.10
15156;DHT22;7678;50.058;8.306;2023-07-20T07:14:48;19.50;91.10
15156;DHT22;7678;50.058;8.306;2023-07-20T07:17:27;19.70;90.30
15156;DHT22;7678;50.058;8.306;2023-07-20T07:20:01;19.60;90.90
15156;DHT22;7678;50.058;8.306;2023-07-20T07:22:38;19.50;91.60
15156;DHT22;7678;50.058;8.306;2023-07-20T07:25:15;19.50;91.20
15156;DHT22;7678;50.058;8.306;2023-07-20T07:27:49;19.70;92.90
15156;DHT22;7678;50.058;8.306;2023-07-20T07:30:18;19.90;90.60
15156;DHT22;7678;50.058;8.306;2023-07-20T07:32:48;20.00;90.10
15156;DHT22;7678;50.058;8.306;2023-07-20T07:35:17;20.10;89.80
15156;DHT22;7678;50.058;8.306;2023-07-20T07:37:45;19.80;90.30
15156;DHT22;7678;50.058;8.306;2023-07-20T07:40:35;19.60;90.40
15156;DHT22;7678;50.058;8.306;2023-07-20T07:43:03;19.60;90.50
15156;DHT22;7678;50.058;8.306;2023-07-20T07:45:37;19.80;90.40
15156;DHT22;7678;50.058;8.306;2023-07-20T07:48:17;20.30;88.90
15156;DHT22;7678;50.058;8.306;2023-07-20T07:50:50;20.40;86.00
15156;DHT22;7678;50.058;8.306;2023-07-20T07:53:20;20.40;84.80
15156;DHT22;7678;50.058;8.306;2023-07-20T07:55:51;20.40;85.30
15156;DHT22;7678;50.058;8.306;2023-07-20T07:58:24;20.40;85.20
15156;DHT22;7678;50.058;8.306;2023-07-20T08:00:53;20.40;84.60
15156;DHT22;7678;50.058;8.306;2023-07-20T08:03:23;20.30;83.40
15156;DHT22;7678;50.058;8.306;2023-07-20T08:06:03;20.30;84.60
15156;DHT22;7678;50.058;8.306;2023-07-20T08:08:33;20.40;83.20
15156;DHT22;7678;50.058;8.306;2023-07-20T08:11:04;20.60;80.80
15156;DHT22;7678;50.058;8.306;2023-07-20T08:13:34;20.60;82.40
15156;DHT22;7678;50.058;8.306;2023-07-20T08:16:06;20.60;84.20
15156;DHT22;7678;50.058;8.306;2023-07-20T08:18:35;20.70;83.80
15156;DHT22;7678;50.058;8.306;2023-07-20T08:21:04;21.10;82.90
15156;DHT22;7678;50.058;8.306;2023-07-20T08:23:35;20.70;82.60
15156;DHT22;7678;50.058;8.306;2023-07-20T08:26:08;20.60;84.70
15156;DHT22;7678;50.058;8.306;2023-07-20T08:28:37;21.10;84.00
15156;DHT22;7678;50.058;8.306;2023-07-20T08:31:09;21.60;79.50
15156;DHT22;7678;50.058;8.306;2023-07-20T08:33:39;22.10;78.50
15156;DHT22;7678;50.058;8.306;2023-07-20T08:36:08;21.70;79.50
15156;DHT22;7678;50.058;8.306;2023-07-20T08:38:42;21.50;80.20
15156;DHT22;7678;50.058;8.306;2023-07-20T08:41:10;21.50;79.50
15156;DHT22;7678;50.058;8.306;2023-07-20T08:43:42;21.60;78.70
15156;DHT22;7678;50.058;8.306;2023-07-20T08:46:13;21.80;75.80
15156;DHT22;7678;50.058;8.306;2023-07-20T08:48:45;22.00;77.70
15156;DHT22;7678;50.058;8.306;2023-07-20T08:51:22;22.30;74.40
15156;DHT22;7678;50.058;8.306;2023-07-20T08:53:54;21.70;73.00
15156;DHT22;7678;50.058;8.306;2023-07-20T08:56:24;21.60;77.80
15156;DHT22;7678;50.058;8.306;2023-07-20T08:58:58;21.30;75.30
15156;DHT22;7678;50.058;8.306;2023-07-20T09:01:41;21.00;76.30
15156;DHT22;7678;50.058;8.306;2023-07-20T09:04:16;20.90;77.10
15156;DHT22;7678;50.058;8.306;2023-07-20T09:06:52;20.90;75.80
15156;DHT22;7678;50.058;8.306;2023-07-20T09:09:21;20.80;78.60
15156;DHT22;7678;50.058;8.306;2023-07-20T09:11:50;20.90;78.00
15156;DHT22;7678;50.058;8.306;2023-07-20T09:14:23;21.40;75.70
15156;DHT22;7678;50.058;8.306;2023-07-20T09:16:54;21.50;74.40
15156;DHT22;7678;50.058;8.306;2023-07-20T09:19:24;21.40;75.50
15156;DHT22;7678;50.058;8.306;2023-07-20T09:21:53;21.40;77.30
15156;DHT22;7678;50.058;8.306;2023-07-20T09:24:22;21.50;75.10
15156;DHT22;7678;50.058;8.306;2023-07-20T09:27:07;21.70;73.10
15156;DHT22;7678;50.058;8.306;2023-07-20T09:29:47;21.80;75.10
15156;DHT22;7678;50.058;8.306;2023-07-20T09:32:18;21.60;76.50
15156;DHT22;7678;50.058;8.306;2023-07-20T09:34:53;21.60;72.20
15156;DHT22;7678;50.058;8.306;2023-07-20T09:37:21;21.70;74.10
15156;DHT22;7678;50.058;8.306;2023-07-20T09:39:52;21.70;73.50
15156;DHT22;7678;50.058;8.306;2023-07-20T09:42:30;21.60;74.20
15156;DHT22;7678;50.058;8.306;2023-07-20T09:45:12;21.50;73.20
15156;DHT22;7678;50.058;8.306;2023-07-20T09:48:23;21.40;72.80
15156;DHT22;7678;50.058;8.306;2023-07-20T09:51:27;21.70;74.50
15156;DHT22;7678;50.058;8.306;2023-07-20T09:54:07;21.60;74.10
15156;DHT22;7678;50.058;8.306;2023-07-20T09:56:38;21.90;74.70
15156;DHT22;7678;50.058;8.306;2023-07-20T09:59:19;22.10;71.70
15156;DHT22;7678;50.058;8.306;2023-07-20T10:01:53;22.30;69.40
15156;DHT22;7678;50.058;8.306;2023-07-20T10:04:23;22.50;72.40
15156;DHT22;7678;50.058;8.306;2023-07-20T10:06:56;22.70;71.10
15156;DHT22;7678;50.058;8.306;2023-07-20T10:09:30;22.80;66.80
15156;DHT22;7678;50.058;8.306;2023-07-20T10:12:01;22.60;66.50
15156;DHT22;7678;50.058;8.306;2023-07-20T10:14:52;22.40;67.70
15156;DHT22;7678;50.058;8.306;2023-07-20T10:17:28;22.10;66.80
15156;DHT22;7678;50.058;8.306;2023-07-20T10:20:00;21.90;70.70
15156;DHT22;7678;50.058;8.306;2023-07-20T10:22:45;21.90;73.30
15156;DHT22;7678;50.058;8.306;2023-07-20T10:25:25;22.10;72.30
15156;DHT22;7678;50.058;8.306;2023-07-20T10:28:00;21.90;69.00
15156;DHT22;7678;50.058;8.306;2023-07-20T10:30:31;21.80;72.30
15156;DHT22;7678;50.058;8.306;2023-07-20T10:33:28;21.80;69.40
15156;DHT22;7678;50.058;8.306;2023-07-20T10:36:06;22.00;68.00
15156;DHT22;7678;50.058;8.306;2023-07-20T10:38:54;22.00;68.40
15156;DHT22;7678;50.058;8.306;2023-07-20T10:41:28;22.30;70.30
15156;DHT22;7678;50.058;8.306;2023-07-20T10:44:01;22.20;67.00
15156;DHT22;7678;50.058;8.306;2023-07-20T10:46:43;22.40;68.60
15156;DHT22;7678;50.058;8.306;2023-07-20T10:49:25;22.80;66.10
15156;DHT22;7678;50.058;8.306;2023-07-20T10:52:05;23.60;63.20
15156;DHT22;7678;50.058;8.306;2023-07-20T10:55:03;23.60;62.30
15156;DHT22;7678;50.058;8.306;2023-07-20T10:57:41;23.70;62.80
15156;DHT22;7678;50.058;8.306;2023-07-20T11:00:14;24.50;61.20
15156;DHT22;7678;50.058;8.306;2023-07-20T11:02:47;24.60;63.20
15156;DHT22;7678;50.058;8.306;2023-07-20T11:05:38;24.40;65.10
15156;DHT22;7678;50.058;8.306;2023-07-20T11:08:12;24.10;62.50
15156;DHT22;7678;50.058;8.306;2023-07-20T11:38:14;23.80;60.50
15156;DHT22;7678;50.058;8.306;2023-07-20T11:40:58;23.60;59.40
15156;DHT22;7678;50.058;8.306;2023-07-20T11:43:27;23.80;58.30
15156;DHT22;7678;50.058;8.306;2023-07-20T11:45:55;23.40;59.30
15156;DHT22;7678;50.058;8.306;2023-07-20T11:48:33;23.20;59.70
15156;DHT22;7678;50.058;8.306;2023-07-20T11:51:04;22.80;59.90
15156;DHT22;7678;50.058;8.306;2023-07-20T11:53:34;22.80;60.20
15156;DHT22;7678;50.058;8.306;2023-07-20T11:56:05;22.60;60.30
15156;DHT22;7678;50.058;8.306;2023-07-20T11:58:45;22.60;60.70
15156;DHT22;7678;50.058;8.306;2023-07-20T12:01:15;22.60;60.30
15156;DHT22;7678;50.058;8.306;2023-07-20T12:03:48;22.80;59.40
15156;DHT22;7678;50.058;8.306;2023-07-20T12:06:16;23.00;59.20
15156;DHT22;7678;50.058;8.306;2023-07-20T12:08:52;23.30;58.00
15156;DHT22;7678;50.058;8.306;2023-07-20T12:11:34;23.30;58.50
15156;DHT22;7678;50.058;8.306;2023-07-20T12:14:06;23.40;58.90
15156;DHT22;7678;50.058;8.306;2023-07-20T12:16:53;23.50;58.70
15156;DHT22;7678;50.058;8.306;2023-07-20T12:19:25;23.70;58.10
15156;DHT22;7678;50.058;8.306;2023-07-20T12:21:57;23.50;59.00
15156;DHT22;7678;50.058;8.306;2023-07-20T12:24:29;23.60;58.80
15156;DHT22;7678;50.058;8.306;2023-07-20T12:26:59;23.80;60.20
15156;DHT22;7678;50.058;8.306;2023-07-20T12:29:29;23.80;58.00
15156;DHT22;7678;50.058;8.306;2023-07-20T12:34:31;23.60;58.20
15156;DHT22;7678;50.058;8.306;2023-07-20T12:37:06;24.20;56.10
15156;DHT22;7678;50.058;8.306;2023-07-20T12:39:39;25.20;55.10
15156;DHT22;7678;50.058;8.306;2023-07-20T12:42:14;25.30;55.60
15156;DHT22;7678;50.058;8.306;2023-07-20T12:44:51;24.90;55.40
15156;DHT22;7678;50.058;8.306;2023-07-20T12:47:23;26.00;55.10
15156;DHT22;7678;50.058;8.306;2023-07-20T12:50:10;26.10;53.50
15156;DHT22;7678;50.058;8.306;2023-07-20T12:52:45;26.50;52.60
15156;DHT22;7678;50.058;8.306;2023-07-20T12:55:26;27.20;54.30
15156;DHT22;7678;50.058;8.306;2023-07-20T12:57:54;27.30;52.50
15156;DHT22;7678;50.058;8.306;2023-07-20T13:00:24;27.30;53.30
15156;DHT22;7678;50.058;8.306;2023-07-20T13:02:54;27.90;52.20
15156;DHT22;7678;50.058;8.306;2023-07-20T13:05:50;27.90;51.10
15156;DHT22;7678;50.058;8.306;2023-07-20T13:08:21;27.50;47.00
15156;DHT22;7678;50.058;8.306;2023-07-20T13:10:53;27.30;51.30
15156;DHT22;7678;50.058;8.306;2023-07-20T13:13:29;28.10;49.60
15156;DHT22;7678;50.058;8.306;2023-07-20T13:15:59;28.00;49.50
15156;DHT22;7678;50.058;8.306;2023-07-20T13:18:29;27.10;49.50
15156;DHT22;7678;50.058;8.306;2023-07-20T13:20:58;27.60;49.90
15156;DHT22;7678;50.058;8.306;2023-07-20T13:23:27;27.30;49.60
15156;DHT22;7678;50.058;8.306;2023-07-20T13:26:24;26.70;49.10
15156;DHT22;7678;50.058;8.306;2023-07-20T13:28:53;26.30;48.80
15156;DHT22;7678;50.058;8.306;2023-07-20T13:31:23;25.60;49.90
15156;DHT22;7678;50.058;8.306;2023-07-20T13:39:37;24.60;51.70
15156;DHT22;7678;50.058;8.306;2023-07-20T13:42:08;24.60;52.60
15156;DHT22;7678;50.058;8.306;2023-07-20T13:44:38;24.50;53.50
15156;DHT22;7678;50.058;8.306;2023-07-20T13:47:07;24.30;52.20
15156;DHT22;7678;50.058;8.306;2023-07-20T13:49:38;23.90;52.40
15156;DHT22;7678;50.058;8.306;2023-07-20T13:52:13;23.70;53.10
15156;DHT22;7678;50.058;8.306;2023-07-20T13:54:45;23.70;53.20
15156;DHT22;7678;50.058;8.306;2023-07-20T13:57:23;23.90;54.10
15156;DHT22;7678;50.058;8.306;2023-07-20T13:59:53;23.80;54.20
15156;DHT22;7678;50.058;8.306;2023-07-20T14:02:22;23.80;53.10
15156;DHT22;7678;50.058;8.306;2023-07-20T14:04:53;23.60;52.00
15156;DHT22;7678;50.058;8.306;2023-07-20T14:07:25;23.90;51.80
15156;DHT22;7678;50.058;8.306;2023-07-20T14:09:54;24.20;53.00
15156;DHT22;7678;50.058;8.306;2023-07-20T14:12:44;24.10;52.40
15156;DHT22;7678;50.058;8.306;2023-07-20T14:15:13;24.10;52.80
15156;DHT22;7678;50.058;8.306;2023-07-20T14:17:49;24.90;52.40
15156;DHT22;7678;50.058;8.306;2023-07-20T14:20:18;25.10;51.30
15156;DHT22;7678;50.058;8.306;2023-07-20T14:22:48;25.00;51.20
15156;DHT22;7678;50.058;8.306;2023-07-20T14:25:18;24.70;51.40
15156;DHT22;7678;50.058;8.306;2023-07-20T14:27:50;24.30;51.80
15156;DHT22;7678;50.058;8.306;2023-07-20T14:30:23;24.30;53.10
15156;DHT22;7678;50.058;8.306;2023-07-20T14:32:52;24.30;52.40
15156;DHT22;7678;50.058;8.306;2023-07-20T14:35:20;24.30;51.80
15156;DHT22;7678;50.058;8.306;2023-07-20T14:37:55;24.50;51.00
15156;DHT22;7678;50.058;8.306;2023-07-20T14:40:48;24.60;51.60
15156;DHT22;7678;50.058;8.306;2023-07-20T14:43:25;24.50;51.10
15156;DHT22;7678;50.058;8.306;2023-07-20T14:46:00;24.50;50.70
15156;DHT22;7678;50.058;8.306;2023-07-20T14:48:30;24.60;51.70
15156;DHT22;7678;50.058;8.306;2023-07-20T14:50:59;24.40;51.60
15156;DHT22;7678;50.058;8.306;2023-07-20T14:53:39;24.60;51.00
15156;DHT22;7678;50.058;8.306;2023-07-20T14:56:07;24.40;50.10
15156;DHT22;7678;50.058;8.306;2023-07-20T14:58:37;24.10;50.50
15156;DHT22;7678;50.058;8.306;2023-07-20T15:01:11;24.10;51.50
15156;DHT22;7678;50.058;8.306;2023-07-20T15:03:45;24.40;51.50
15156;DHT22;7678;50.058;8.306;2023-07-20T15:06:19;25.60;50.20
15156;DHT22;7678;50.058;8.306;2023-07-20T15:08:51;25.90;49.70
15156;DHT22;7678;50.058;8.306;2023-07-20T15:11:32;25.70;49.10
15156;DHT22;7678;50.058;8.306;2023-07-20T15:14:06;25.20;51.70
15156;DHT22;7678;50.058;8.306;2023-07-20T15:16:36;25.70;52.20
15156;DHT22;7678;50.058;8.306;2023-07-20T15:19:15;25.50;48.80
15156;DHT22;7678;50.058;8.306;2023-07-20T15:22:21;26.20;49.80
15156;DHT22;7678;50.058;8.306;2023-07-20T15:25:07;25.70;48.50
15156;DHT22;7678;50.058;8.306;2023-07-20T15:27:44;25.10;47.90
15156;DHT22;7678;50.058;8.306;2023-07-20T15:30:18;24.80;49.10
15156;DHT22;7678;50.058;8.306;2023-07-20T15:32:50;24.70;49.80
15156;DHT22;7678;50.058;8.306;2023-07-20T15:35:21;24.80;50.00
15156;DHT22;7678;50.058;8.306;2023-07-20T15:37:51;25.30;51.60
15156;DHT22;7678;50.058;8.306;2023-07-20T15:46:45;25.30;48.70
15156;DHT22;7678;50.058;8.306;2023-07-20T15:49:15;25.20;49.50
15156;DHT22;7678;50.058;8.306;2023-07-20T15:51:44;24.70;49.40
15156;DHT22;7678;50.058;8.306;2023-07-20T15:54:14;24.60;51.30
15156;DHT22;7678;50.058;8.306;2023-07-20T15:56:43;24.70;49.70
15156;DHT22;7678;50.058;8.306;2023-07-20T15:59:15;25.00;49.30
15156;DHT22;7678;50.058;8.306;2023-07-20T16:01:48;24.70;48.00
15156;DHT22;7678;50.058;8.306;2023-07-20T16:04:17;24.50;49.00
15156;DHT22;7678;50.058;8.306;2023-07-20T16:06:49;24.40;49.70
15156;DHT22;7678;50.058;8.306;2023-07-20T16:09:18;24.40;49.90
15156;DHT22;7678;50.058;8.306;2023-07-20T16:12:00;24.60;50.80
15156;DHT22;7678;50.058;8.306;2023-07-20T16:14:28;24.50;50.10
15156;DHT22;7678;50.058;8.306;2023-07-20T16:17:18;24.30;49.60
15156;DHT22;7678;50.058;8.306;2023-07-20T16:19:48;24.30;50.40
15156;DHT22;7678;50.058;8.306;2023-07-20T16:22:17;24.20;50.00
15156;DHT22;7678;50.058;8.306;2023-07-20T16:24:45;24.40;50.70
15156;DHT22;7678;50.058;8.306;2023-07-20T16:27:35;25.40;49.20
15156;DHT22;7678;50.058;8.306;2023-07-20T16:30:05;25.50;48.10
15156;DHT22;7678;50.058;8.306;2023-07-20T16:32:47;25.30;48.70
15156;DHT22;7678;50.058;8.306;2023-07-20T16:35:18;24.80;48.40
15156;DHT22;7678;50.058;8.306;2023-07-20T16:38:08;24.60;49.60
15156;DHT22;7678;50.058;8.306;2023-07-20T16:40:40;24.30;49.10
15156;DHT22;7678;50.058;8.306;2023-07-20T16:43:14;24.30;50.20
15156;DHT22;7678;50.058;8.306;2023-07-20T16:46:03;24.50;49.50
15156;DHT22;7678;50.058;8.306;2023-07-20T16:48:40;25.10;49.20
15156;DHT22;7678;50.058;8.306;2023-07-20T16:54:38;26.10;47.30
15156;DHT22;7678;50.058;8.306;2023-07-20T16:57:18;26.90;45.90
15156;DHT22;7678;50.058;8.306;2023-07-20T16:59:47;26.80;46.30
15156;DHT22;7678;50.058;8.306;2023-07-20T17:02:33;25.60;47.20
15156;DHT22;7678;50.058;8.306;2023-07-20T17:05:03;24.80;49.50
15156;DHT22;7678;50.058;8.306;2023-07-20T17:07:36;24.40;50.30